sensor_id;sensor_type;location;lat;lon;timestamp;temperature;humidity
11965;DHT22;6042;41.326;19.826;2022-07-10T00:00:14;21.50;94.20
11965;DHT22;6042;41.326;19.826;2022-07-10T00:02:45;21.60;94.00
11965;DHT22;6042;41.326;19.826;2022-07-10T00:05:13;21.60;94.60
11965;DHT22;6042;41.326;19.826;2022-07-10T00:07:46;21.60;94.60
11965;DHT22;6042;41.326;19.826;2022-07-10T00:10:15;21.60;94.20
11965;DHT22;6042;41.326;19.826;2022-07-10T00:12:46;21.40;94.70
11965;DHT22;6042;41.326;19.826;2022-07-10T00:15:16;21.20;95.00
11965;DHT22;6042;41.326;19.826;2022-07-10T00:17:45;21.10;94.80
11965;DHT22;6042;41.326;19.826;2022-07-10T00:20:14;21.10;94.10
11965;DHT22;6042;41.326;19.826;2022-07-10T00:22:42;21.10;94.00
11965;DHT22;6042;41.326;19.826;2022-07-10T00:25:12;21.00;94.70
11965;DHT22;6042;41.326;19.826;2022-07-10T00:27:41;21.10;94.30
11965;DHT22;6042;41.326;19.826;2022-07-10T00:30:11;21.20;95.80
11965;DHT22;6042;41.326;19.826;2022-07-10T00:32:41;21.10;96.40
11965;DHT22;6042;41.326;19.826;2022-07-10T00:35:09;21.10;96.60
11965;DHT22;6042;41.326;19.826;2022-07-10T00:37:38;21.00;97.20
11965;DHT22;6042;41.326;19.826;2022-07-10T00:40:07;20.80;97.40
11965;DHT22;6042;41.326;19.826;2022-07-10T00:42:36;20.80;96.80
11965;DHT22;6042;41.326;19.826;2022-07-10T00:45:05;20.80;95.80
11965;DHT22;6042;41.326;19.826;2022-07-10T00:47:36;20.80;96.10
11965;DHT22;6042;41.326;19.826;2022-07-10T00:50:05;20.70;97.30
11965;DHT22;6042;41.326;19.826;2022-07-10T00:52:35;20.70;97.40
11965;DHT22;6042;41.326;19.826;2022-07-10T00:55:07;20.60;97.00
11965;DHT22;6042;41.326;19.826;2022-07-10T00:57:37;20.60;97.30
11965;DHT22;6042;41.326;19.826;2022-07-10T01:00:08;20.60;97.30
11965;DHT22;6042;41.326;19.826;2022-07-10T01:02:42;20.60;97.50
11965;DHT22;6042;41.326;19.826;2022-07-10T01:05:11;20.60;97.20
11965;DHT22;6042;41.326;19.826;2022-07-10T01:07:39;20.60;96.60
11965;DHT22;6042;41.326;19.826;2022-07-10T01:10:10;20.60;96.70
11965;DHT22;6042;41.326;19.826;2022-07-10T01:12:39;20.50;96.40
11965;DHT22;6042;41.326;19.826;2022-07-10T01:15:08;20.50;96.60
11965;DHT22;6042;41.326;19.826;2022-07-10T01:17:36;20.50;96.90
11965;DHT22;6042;41.326;19.826;2022-07-10T01:20:08;20.40;97.30
11965;DHT22;6042;41.326;19.826;2022-07-10T01:22:39;20.30;97.90
11965;DHT22;6042;41.326;19.826;2022-07-10T01:25:08;20.20;97.50
11965;DHT22;6042;41.326;19.826;2022-07-10T01:27:38;20.30;97.50
11965;DHT22;6042;41.326;19.826;2022-07-10T01:30:08;20.20;97.60
11965;DHT22;6042;41.326;19.826;2022-07-10T01:32:38;20.30;97.90
11965;DHT22;6042;41.326;19.826;2022-07-10T01:35:07;20.20;97.40
11965;DHT22;6042;41.326;19.826;2022-07-10T01:37:38;20.10;97.30
11965;DHT22;6042;41.326;19.826;2022-07-10T01:40:07;20.00;97.50
11965;DHT22;6042;41.326;19.826;2022-07-10T01:42:36;19.90;97.40
11965;DHT22;6042;41.326;19.826;2022-07-10T01:45:06;19.90;97.60
11965;DHT22;6042;41.326;19.826;2022-07-10T01:47:35;20.00;97.50
11965;DHT22;6042;41.326;19.826;2022-07-10T01:50:05;20.10;97.70
11965;DHT22;6042;41.326;19.826;2022-07-10T01:52:34;20.10;97.80
11965;DHT22;6042;41.326;19.826;2022-07-10T01:55:04;20.00;97.90
11965;DHT22;6042;41.326;19.826;2022-07-10T01:57:34;20.00;97.60
11965;DHT22;6042;41.326;19.826;2022-07-10T02:00:04;20.00;97.60
11965;DHT22;6042;41.326;19.826;2022-07-10T02:02:38;20.00;97.60
11965;DHT22;6042;41.326;19.826;2022-07-10T02:05:07;20.00;97.60
11965;DHT22;6042;41.326;19.826;2022-07-10T02:07:35;20.10;97.30
11965;DHT22;6042;41.326;19.826;2022-07-10T02:10:05;20.10;97.10
11965;DHT22;6042;41.326;19.826;2022-07-10T02:12:34;20.00;97.40
11965;DHT22;6042;41.326;19.826;2022-07-10T02:15:03;19.90;97.80
11965;DHT22;6042;41.326;19.826;2022-07-10T02:17:32;19.90;98.00
11965;DHT22;6042;41.326;19.826;2022-07-10T02:20:00;19.80;98.10
11965;DHT22;6042;41.326;19.826;2022-07-10T02:22:29;19.90;99.10
11965;DHT22;6042;41.326;19.826;2022-07-10T02:24:57;19.90;99.50
11965;DHT22;6042;41.326;19.826;2022-07-10T02:27:27;19.90;99.70
11965;DHT22;6042;41.326;19.826;2022-07-10T02:29:56;19.80;99.90
11965;DHT22;6042;41.326;19.826;2022-07-10T02:32:24;19.80;99.90
11965;DHT22;6042;41.326;19.826;2022-07-10T02:34:53;19.70;99.90
11965;DHT22;6042;41.326;19.826;2022-07-10T02:37:24;19.50;99.90
11965;DHT22;6042;41.326;19.826;2022-07-10T02:39:53;19.60;99.90
11965;DHT22;6042;41.326;19.826;2022-07-10T02:42:22;19.50;99.90
11965;DHT22;6042;41.326;19.826;2022-07-10T02:44:52;19.50;99.90
11965;DHT22;6042;41.326;19.826;2022-07-10T02:47:20;19.60;99.90
11965;DHT22;6042;41.326;19.826;2022-07-10T02:49:49;19.60;99.90
11965;DHT22;6042;41.326;19.826;2022-07-10T02:52:17;19.50;99.90
11965;DHT22;6042;41.326;19.826;2022-07-10T02:54:46;19.40;99.90
11965;DHT22;6042;41.326;19.826;2022-07-10T02:57:14;19.40;99.90
11965;DHT22;6042;41.326;19.826;2022-07-10T02:59:43;19.50;99.90
11965;DHT22;6042;41.326;19.826;2022-07-10T03:02:13;19.50;99.90
11965;DHT22;6042;41.326;19.826;2022-07-10T03:04:41;19.40;99.90
11965;DHT22;6042;41.326;19.826;2022-07-10T03:07:10;19.30;99.90
11965;DHT22;6042;41.326;19.826;2022-07-10T03:09:38;19.20;99.90
11965;DHT22;6042;41.326;19.826;2022-07-10T03:12:07;19.20;99.90
11965;DHT22;6042;41.326;19.826;2022-07-10T03:14:35;19.40;99.90
11965;DHT22;6042;41.326;19.826;2022-07-10T03:17:04;19.40;99.90
11965;DHT22;6042;41.326;19.826;2022-07-10T03:19:34;19.50;99.90
11965;DHT22;6042;41.326;19.826;2022-07-10T03:22:03;19.40;99.90
11965;DHT22;6042;41.326;19.826;2022-07-10T03:24:32;19.40;99.90
11965;DHT22;6042;41.326;19.826;2022-07-10T03:27:00;19.40;99.90
11965;DHT22;6042;41.326;19.826;2022-07-10T03:29:29;19.40;99.90
11965;DHT22;6042;41.326;19.826;2022-07-10T03:31:57;19.30;99.90
11965;DHT22;6042;41.326;19.826;2022-07-10T03:34:26;19.40;99.90
11965;DHT22;6042;41.326;19.826;2022-07-10T03:36:56;19.50;99.90
11965;DHT22;6042;41.326;19.826;2022-07-10T03:39:24;19.40;99.90
11965;DHT22;6042;41.326;19.826;2022-07-10T03:41:53;19.40;99.90
11965;DHT22;6042;41.326;19.826;2022-07-10T03:44:21;19.50;99.90
11965;DHT22;6042;41.326;19.826;2022-07-10T03:46:50;19.50;99.90
11965;DHT22;6042;41.326;19.826;2022-07-10T03:49:18;19.40;99.90
11965;DHT22;6042;41.326;19.826;2022-07-10T03:51:47;19.30;99.90
11965;DHT22;6042;41.326;19.826;2022-07-10T03:54:17;19.30;99.90
11965;DHT22;6042;41.326;19.826;2022-07-10T03:56:46;19.20;99.90
11965;DHT22;6042;41.326;19.826;2022-07-10T03:59:32;19.30;99.90
11965;DHT22;6042;41.326;19.826;2022-07-10T04:02:01;19.30;99.90
11965;DHT22;6042;41.326;19.826;2022-07-10T04:04:30;19.40;99.90
11965;DHT22;6042;41.326;19.826;2022-07-10T04:06:58;19.40;99.90
11965;DHT22;6042;41.326;19.826;2022-07-10T04:09:28;19.40;99.90
11965;DHT22;6042;41.326;19.826;2022-07-10T04:11:57;19.40;99.90
11965;DHT22;6042;41.326;19.826;2022-07-10T04:14:25;19.40;99.90
11965;DHT22;6042;41.326;19.826;2022-07-10T04:16:54;19.40;99.90
11965;DHT22;6042;41.326;19.826;2022-07-10T04:19:22;19.50;99.90
11965;DHT22;6042;41.326;19.826;2022-07-10T04:21:51;19.50;99.90
11965;DHT22;6042;41.326;19.826;2022-07-10T04:24:19;19.50;99.90
11965;DHT22;6042;41.326;19.826;2022-07-10T04:26:49;19.50;99.90
11965;DHT22;6042;41.326;19.826;2022-07-10T04:29:17;19.50;99.90
11965;DHT22;6042;41.326;19.826;2022-07-10T04:31:46;19.60;99.90
11965;DHT22;6042;41.326;19.826;2022-07-10T04:34:14;19.50;99.90
11965;DHT22;6042;41.326;19.826;2022-07-10T04:36:43;19.70;99.90
11965;DHT22;6042;41.326;19.826;2022-07-10T04:39:11;19.70;99.90
11965;DHT22;6042;41.326;19.826;2022-07-10T04:41:40;19.80;99.90
11965;DHT22;6042;41.326;19.826;2022-07-10T04:44:10;19.80;99.90
11965;DHT22;6042;41.326;19.826;2022-07-10T04:46:38;19.90;99.90
11965;DHT22;6042;41.326;19.826;2022-07-10T04:49:07;20.00;99.90
11965;DHT22;6042;41.326;19.826;2022-07-10T04:51:36;20.00;99.90
11965;DHT22;6042;41.326;19.826;2022-07-10T04:54:12;20.00;99.90
11965;DHT22;6042;41.326;19.826;2022-07-10T04:56:41;20.10;99.90
11965;DHT22;6042;41.326;19.826;2022-07-10T04:59:10;20.10;99.90
11965;DHT22;6042;41.326;19.826;2022-07-10T05:01:39;20.20;99.90
11965;DHT22;6042;41.326;19.826;2022-07-10T05:04:08;20.20;99.90
11965;DHT22;6042;41.326;19.826;2022-07-10T05:06:36;20.40;99.70
11965;DHT22;6042;41.326;19.826;2022-07-10T05:09:05;20.50;99.40
11965;DHT22;6042;41.326;19.826;2022-07-10T05:11:33;20.70;99.80
11965;DHT22;6042;41.326;19.826;2022-07-10T05:14:02;20.80;99.80
11965;DHT22;6042;41.326;19.826;2022-07-10T05:16:32;20.80;99.90
11965;DHT22;6042;41.326;19.826;2022-07-10T05:19:00;21.00;99.50
11965;DHT22;6042;41.326;19.826;2022-07-10T05:21:29;21.00;99.70
11965;DHT22;6042;41.326;19.826;2022-07-10T05:23:57;21.00;99.90
11965;DHT22;6042;41.326;19.826;2022-07-10T05:26:26;21.20;99.90
11965;DHT22;6042;41.326;19.826;2022-07-10T05:28:54;21.20;99.40
11965;DHT22;6042;41.326;19.826;2022-07-10T05:31:23;21.30;99.40
11965;DHT22;6042;41.326;19.826;2022-07-10T05:33:53;21.30;99.50
11965;DHT22;6042;41.326;19.826;2022-07-10T05:36:21;21.40;99.40
11965;DHT22;6042;41.326;19.826;2022-07-10T05:38:50;21.40;99.10
11965;DHT22;6042;41.326;19.826;2022-07-10T05:41:19;21.40;99.10
11965;DHT22;6042;41.326;19.826;2022-07-10T05:43:47;21.60;98.50
11965;DHT22;6042;41.326;19.826;2022-07-10T05:46:16;21.70;98.50
11965;DHT22;6042;41.326;19.826;2022-07-10T05:48:44;21.80;98.30
11965;DHT22;6042;41.326;19.826;2022-07-10T05:51:14;21.90;97.80
11965;DHT22;6042;41.326;19.826;2022-07-10T05:53:57;22.20;97.70
11965;DHT22;6042;41.326;19.826;2022-07-10T05:56:26;22.40;97.30
11965;DHT22;6042;41.326;19.826;2022-07-10T05:58:54;22.50;97.00
11965;DHT22;6042;41.326;19.826;2022-07-10T06:01:23;22.60;96.70
11965;DHT22;6042;41.326;19.826;2022-07-10T06:03:53;22.60;95.80
11965;DHT22;6042;41.326;19.826;2022-07-10T06:06:23;22.80;95.20
11965;DHT22;6042;41.326;19.826;2022-07-10T06:08:52;22.90;95.30
11965;DHT22;6042;41.326;19.826;2022-07-10T06:11:20;23.00;94.90
11965;DHT22;6042;41.326;19.826;2022-07-10T06:13:49;23.10;94.70
11965;DHT22;6042;41.326;19.826;2022-07-10T06:16:17;23.10;94.90
11965;DHT22;6042;41.326;19.826;2022-07-10T06:18:46;23.20;94.40
11965;DHT22;6042;41.326;19.826;2022-07-10T06:21:15;23.40;94.10
11965;DHT22;6042;41.326;19.826;2022-07-10T06:23:50;23.40;93.50
11965;DHT22;6042;41.326;19.826;2022-07-10T06:26:18;23.40;93.80
11965;DHT22;6042;41.326;19.826;2022-07-10T06:28:47;23.50;93.50
11965;DHT22;6042;41.326;19.826;2022-07-10T06:31:15;23.60;93.30
11965;DHT22;6042;41.326;19.826;2022-07-10T06:33:44;23.70;93.10
11965;DHT22;6042;41.326;19.826;2022-07-10T06:36:12;23.80;92.50
11965;DHT22;6042;41.326;19.826;2022-07-10T06:38:41;23.80;92.20
11965;DHT22;6042;41.326;19.826;2022-07-10T06:41:11;23.90;92.00
11965;DHT22;6042;41.326;19.826;2022-07-10T06:43:39;23.80;91.90
11965;DHT22;6042;41.326;19.826;2022-07-10T06:46:08;23.70;92.00
11965;DHT22;6042;41.326;19.826;2022-07-10T06:48:37;23.70;92.40
11965;DHT22;6042;41.326;19.826;2022-07-10T06:51:07;23.80;92.80
11965;DHT22;6042;41.326;19.826;2022-07-10T06:53:45;23.80;93.20
11965;DHT22;6042;41.326;19.826;2022-07-10T06:56:15;23.80;93.30
11965;DHT22;6042;41.326;19.826;2022-07-10T06:58:43;23.90;92.90
11965;DHT22;6042;41.326;19.826;2022-07-10T07:01:14;23.80;92.70
11965;DHT22;6042;41.326;19.826;2022-07-10T07:03:43;23.80;92.60
11965;DHT22;6042;41.326;19.826;2022-07-10T07:06:11;23.80;92.40
11965;DHT22;6042;41.326;19.826;2022-07-10T07:08:40;23.80;92.40
11965;DHT22;6042;41.326;19.826;2022-07-10T07:11:09;23.90;92.10
11965;DHT22;6042;41.326;19.826;2022-07-10T07:13:42;24.00;91.90
11965;DHT22;6042;41.326;19.826;2022-07-10T07:16:11;24.10;91.60
11965;DHT22;6042;41.326;19.826;2022-07-10T07:18:45;24.30;91.60
11965;DHT22;6042;41.326;19.826;2022-07-10T07:21:19;24.40;90.80
11965;DHT22;6042;41.326;19.826;2022-07-10T07:24:05;24.50;90.80
11965;DHT22;6042;41.326;19.826;2022-07-10T07:26:34;24.60;90.50
11965;DHT22;6042;41.326;19.826;2022-07-10T07:29:04;24.60;90.50
11965;DHT22;6042;41.326;19.826;2022-07-10T07:31:32;24.60;90.60
11965;DHT22;6042;41.326;19.826;2022-07-10T07:34:01;24.80;90.50
11965;DHT22;6042;41.326;19.826;2022-07-10T07:36:29;25.00;90.10
11965;DHT22;6042;41.326;19.826;2022-07-10T07:38:58;25.00;88.90
11965;DHT22;6042;41.326;19.826;2022-07-10T07:41:27;25.00;87.70
11965;DHT22;6042;41.326;19.826;2022-07-10T07:43:56;25.00;87.70
11965;DHT22;6042;41.326;19.826;2022-07-10T07:46:25;25.00;86.10
11965;DHT22;6042;41.326;19.826;2022-07-10T07:48:54;25.00;86.70
11965;DHT22;6042;41.326;19.826;2022-07-10T07:51:24;25.00;86.20
11965;DHT22;6042;41.326;19.826;2022-07-10T07:53:52;25.00;85.90
11965;DHT22;6042;41.326;19.826;2022-07-10T07:56:21;25.10;85.00
11965;DHT22;6042;41.326;19.826;2022-07-10T07:58:49;25.10;84.20
11965;DHT22;6042;41.326;19.826;2022-07-10T08:01:18;25.30;84.10
11965;DHT22;6042;41.326;19.826;2022-07-10T08:03:48;25.30;81.70
11965;DHT22;6042;41.326;19.826;2022-07-10T08:06:35;25.20;83.00
11965;DHT22;6042;41.326;19.826;2022-07-10T08:09:03;25.30;82.40
11965;DHT22;6042;41.326;19.826;2022-07-10T08:11:32;25.30;82.90
11965;DHT22;6042;41.326;19.826;2022-07-10T08:14:01;25.50;82.20
11965;DHT22;6042;41.326;19.826;2022-07-10T08:16:29;25.70;81.00
11965;DHT22;6042;41.326;19.826;2022-07-10T08:18:59;25.80;80.60
11965;DHT22;6042;41.326;19.826;2022-07-10T08:21:28;25.80;80.90
11965;DHT22;6042;41.326;19.826;2022-07-10T08:23:57;25.90;81.00
11965;DHT22;6042;41.326;19.826;2022-07-10T08:26:25;26.00;80.90
11965;DHT22;6042;41.326;19.826;2022-07-10T08:28:54;26.00;80.50
11965;DHT22;6042;41.326;19.826;2022-07-10T08:31:22;26.00;80.10
11965;DHT22;6042;41.326;19.826;2022-07-10T08:33:51;25.90;79.70
11965;DHT22;6042;41.326;19.826;2022-07-10T08:36:21;25.90;80.10
11965;DHT22;6042;41.326;19.826;2022-07-10T08:39:06;26.00;79.50
11965;DHT22;6042;41.326;19.826;2022-07-10T08:41:35;26.00;79.20
11965;DHT22;6042;41.326;19.826;2022-07-10T08:44:04;26.20;78.40
11965;DHT22;6042;41.326;19.826;2022-07-10T08:46:33;26.30;78.30
11965;DHT22;6042;41.326;19.826;2022-07-10T08:49:08;26.40;77.80
11965;DHT22;6042;41.326;19.826;2022-07-10T08:51:41;26.40;77.60
11965;DHT22;6042;41.326;19.826;2022-07-10T08:54:09;26.30;78.10
11965;DHT22;6042;41.326;19.826;2022-07-10T08:56:38;26.40;77.70
11965;DHT22;6042;41.326;19.826;2022-07-10T08:59:08;26.30;78.20
11965;DHT22;6042;41.326;19.826;2022-07-10T09:01:36;26.40;79.10
11965;DHT22;6042;41.326;19.826;2022-07-10T09:04:05;26.50;78.10
11965;DHT22;6042;41.326;19.826;2022-07-10T09:06:33;26.50;78.50
11965;DHT22;6042;41.326;19.826;2022-07-10T09:09:04;26.70;77.30
11965;DHT22;6042;41.326;19.826;2022-07-10T09:11:33;26.80;78.00
11965;DHT22;6042;41.326;19.826;2022-07-10T09:14:04;26.90;75.90
11965;DHT22;6042;41.326;19.826;2022-07-10T09:16:36;26.90;75.70
11965;DHT22;6042;41.326;19.826;2022-07-10T09:19:16;26.90;75.10
11965;DHT22;6042;41.326;19.826;2022-07-10T09:21:45;26.80;73.90
11965;DHT22;6042;41.326;19.826;2022-07-10T09:24:17;26.80;73.70
11965;DHT22;6042;41.326;19.826;2022-07-10T09:26:58;26.80;74.00
11965;DHT22;6042;41.326;19.826;2022-07-10T09:29:28;26.90;75.00
11965;DHT22;6042;41.326;19.826;2022-07-10T09:31:57;26.90;74.50
11965;DHT22;6042;41.326;19.826;2022-07-10T09:34:37;26.80;74.70
11965;DHT22;6042;41.326;19.826;2022-07-10T09:37:23;26.80;74.00
11965;DHT22;6042;41.326;19.826;2022-07-10T09:39:56;26.60;73.70
11965;DHT22;6042;41.326;19.826;2022-07-10T09:42:32;26.70;74.40
11965;DHT22;6042;41.326;19.826;2022-07-10T09:45:15;26.80;74.30
11965;DHT22;6042;41.326;19.826;2022-07-10T09:47:46;27.00;74.60
11965;DHT22;6042;41.326;19.826;2022-07-10T09:50:23;27.20;74.50
11965;DHT22;6042;41.326;19.826;2022-07-10T09:52:53;27.30;74.20
11965;DHT22;6042;41.326;19.826;2022-07-10T09:55:24;27.40;74.20
11965;DHT22;6042;41.326;19.826;2022-07-10T09:57:56;27.30;74.00
11965;DHT22;6042;41.326;19.826;2022-07-10T10:00:26;27.30;74.50
11965;DHT22;6042;41.326;19.826;2022-07-10T10:02:57;27.30;73.60
11965;DHT22;6042;41.326;19.826;2022-07-10T10:05:44;27.30;73.20
11965;DHT22;6042;41.326;19.826;2022-07-10T10:08:17;27.30;73.30
11965;DHT22;6042;41.326;19.826;2022-07-10T10:10:49;27.50;73.00
11965;DHT22;6042;41.326;19.826;2022-07-10T10:13:20;27.70;73.00
11965;DHT22;6042;41.326;19.826;2022-07-10T10:15:51;27.90;72.20
11965;DHT22;6042;41.326;19.826;2022-07-10T10:18:21;28.00;71.50
11965;DHT22;6042;41.326;19.826;2022-07-10T10:20:51;28.00;70.80
11965;DHT22;6042;41.326;19.826;2022-07-10T10:23:20;28.00;71.20
11965;DHT22;6042;41.326;19.826;2022-07-10T10:25:51;28.10;72.30
11965;DHT22;6042;41.326;19.826;2022-07-10T10:28:21;28.10;70.40
11965;DHT22;6042;41.326;19.826;2022-07-10T10:30:53;28.10;70.20
11965;DHT22;6042;41.326;19.826;2022-07-10T10:33:44;28.10;70.30
11965;DHT22;6042;41.326;19.826;2022-07-10T10:36:44;28.20;70.60
11965;DHT22;6042;41.326;19.826;2022-07-10T10:39:14;28.20;68.20
11965;DHT22;6042;41.326;19.826;2022-07-10T10:41:50;28.40;70.10
11965;DHT22;6042;41.326;19.826;2022-07-10T10:44:20;28.60;68.10
11965;DHT22;6042;41.326;19.826;2022-07-10T10:46:57;28.80;70.30
11965;DHT22;6042;41.326;19.826;2022-07-10T10:52:29;29.00;68.10
11965;DHT22;6042;41.326;19.826;2022-07-10T10:55:04;29.20;67.60
11965;DHT22;6042;41.326;19.826;2022-07-10T10:57:41;29.30;68.10
11965;DHT22;6042;41.326;19.826;2022-07-10T11:00:30;29.40;67.50
11965;DHT22;6042;41.326;19.826;2022-07-10T11:03:15;29.40;66.60
11965;DHT22;6042;41.326;19.826;2022-07-10T11:05:45;29.40;67.40
11965;DHT22;6042;41.326;19.826;2022-07-10T11:08:35;29.50;67.00
11965;DHT22;6042;41.326;19.826;2022-07-10T11:11:39;29.50;65.60
11965;DHT22;6042;41.326;19.826;2022-07-10T11:14:10;29.60;65.90
11965;DHT22;6042;41.326;19.826;2022-07-10T11:16:48;29.80;65.10
11965;DHT22;6042;41.326;19.826;2022-07-10T11:19:21;29.90;62.80
11965;DHT22;6042;41.326;19.826;2022-07-10T11:22:12;29.60;62.60
11965;DHT22;6042;41.326;19.826;2022-07-10T11:24:49;29.10;64.50
11965;DHT22;6042;41.326;19.826;2022-07-10T11:27:36;28.80;64.90
11965;DHT22;6042;41.326;19.826;2022-07-10T11:30:11;28.70;66.10
11965;DHT22;6042;41.326;19.826;2022-07-10T11:32:40;28.70;65.00
11965;DHT22;6042;41.326;19.826;2022-07-10T11:35:11;29.00;64.50
11965;DHT22;6042;41.326;19.826;2022-07-10T11:37:48;29.40;61.90
11965;DHT22;6042;41.326;19.826;2022-07-10T11:40:19;29.40;62.30
11965;DHT22;6042;41.326;19.826;2022-07-10T11:42:52;29.60;61.20
11965;DHT22;6042;41.326;19.826;2022-07-10T11:45:24;29.80;60.30
11965;DHT22;6042;41.326;19.826;2022-07-10T11:47:53;29.90;60.00
11965;DHT22;6042;41.326;19.826;2022-07-10T11:50:22;29.80;59.40
11965;DHT22;6042;41.326;19.826;2022-07-10T11:52:51;29.90;59.30
11965;DHT22;6042;41.326;19.826;2022-07-10T11:55:22;30.20;59.10
11965;DHT22;6042;41.326;19.826;2022-07-10T11:57:51;30.50;57.80
11965;DHT22;6042;41.326;19.826;2022-07-10T12:00:28;30.50;57.80
11965;DHT22;6042;41.326;19.826;2022-07-10T12:03:16;30.60;57.00
11965;DHT22;6042;41.326;19.826;2022-07-10T12:05:49;30.80;57.90
11965;DHT22;6042;41.326;19.826;2022-07-10T12:08:18;30.90;57.70
11965;DHT22;6042;41.326;19.826;2022-07-10T12:10:47;30.40;59.00
11965;DHT22;6042;41.326;19.826;2022-07-10T12:13:15;29.80;59.90
11965;DHT22;6042;41.326;19.826;2022-07-10T12:15:46;29.90;59.80
11965;DHT22;6042;41.326;19.826;2022-07-10T12:18:17;30.40;60.00
11965;DHT22;6042;41.326;19.826;2022-07-10T12:20:47;30.90;58.70
11965;DHT22;6042;41.326;19.826;2022-07-10T12:23:16;31.20;57.50
11965;DHT22;6042;41.326;19.826;2022-07-10T12:25:46;31.10;56.90
11965;DHT22;6042;41.326;19.826;2022-07-10T12:28:16;31.00;58.00
11965;DHT22;6042;41.326;19.826;2022-07-10T12:30:48;30.90;58.00
11965;DHT22;6042;41.326;19.826;2022-07-10T12:33:19;30.70;59.30
11965;DHT22;6042;41.326;19.826;2022-07-10T12:35:51;30.40;59.30
11965;DHT22;6042;41.326;19.826;2022-07-10T12:38:21;30.40;60.10
11965;DHT22;6042;41.326;19.826;2022-07-10T12:40:50;30.30;59.20
11965;DHT22;6042;41.326;19.826;2022-07-10T12:43:27;30.20;59.80
11965;DHT22;6042;41.326;19.826;2022-07-10T12:46:11;30.30;60.20
11965;DHT22;6042;41.326;19.826;2022-07-10T12:48:42;30.30;60.00
11965;DHT22;6042;41.326;19.826;2022-07-10T12:51:22;30.70;59.70
11965;DHT22;6042;41.326;19.826;2022-07-10T12:53:51;31.10;59.40
11965;DHT22;6042;41.326;19.826;2022-07-10T12:56:33;31.10;59.40
11965;DHT22;6042;41.326;19.826;2022-07-10T12:59:11;31.00;59.80
11965;DHT22;6042;41.326;19.826;2022-07-10T13:01:43;31.60;59.40
11965;DHT22;6042;41.326;19.826;2022-07-10T13:04:12;31.90;57.90
11965;DHT22;6042;41.326;19.826;2022-07-10T13:06:40;31.70;57.10
11965;DHT22;6042;41.326;19.826;2022-07-10T13:09:19;31.70;57.30
11965;DHT22;6042;41.326;19.826;2022-07-10T13:11:49;31.60;58.10
11965;DHT22;6042;41.326;19.826;2022-07-10T13:14:18;31.80;58.50
11965;DHT22;6042;41.326;19.826;2022-07-10T13:16:48;31.30;59.30
11965;DHT22;6042;41.326;19.826;2022-07-10T13:19:17;30.80;60.30
11965;DHT22;6042;41.326;19.826;2022-07-10T13:21:46;30.60;60.80
11965;DHT22;6042;41.326;19.826;2022-07-10T13:24:14;30.30;61.70
11965;DHT22;6042;41.326;19.826;2022-07-10T13:26:43;30.30;62.10
11965;DHT22;6042;41.326;19.826;2022-07-10T13:29:12;30.60;60.70
11965;DHT22;6042;41.326;19.826;2022-07-10T13:31:41;30.90;61.10
11965;DHT22;6042;41.326;19.826;2022-07-10T13:34:10;31.10;59.70
11965;DHT22;6042;41.326;19.826;2022-07-10T13:36:39;30.30;61.00
11965;DHT22;6042;41.326;19.826;2022-07-10T13:39:07;30.00;61.30
11965;DHT22;6042;41.326;19.826;2022-07-10T13:41:36;30.00;61.60
11965;DHT22;6042;41.326;19.826;2022-07-10T13:44:05;30.10;61.70
11965;DHT22;6042;41.326;19.826;2022-07-10T13:46:40;29.90;62.00
11965;DHT22;6042;41.326;19.826;2022-07-10T13:49:10;30.40;61.50
11965;DHT22;6042;41.326;19.826;2022-07-10T13:51:39;30.30;61.20
11965;DHT22;6042;41.326;19.826;2022-07-10T13:54:07;29.90;62.20
11965;DHT22;6042;41.326;19.826;2022-07-10T13:56:36;30.10;62.30
11965;DHT22;6042;41.326;19.826;2022-07-10T13:59:04;30.30;61.60
11965;DHT22;6042;41.326;19.826;2022-07-10T14:01:33;30.70;60.70
11965;DHT22;6042;41.326;19.826;2022-07-10T14:04:01;30.70;60.50
11965;DHT22;6042;41.326;19.826;2022-07-10T14:06:32;30.60;61.00
11965;DHT22;6042;41.326;19.826;2022-07-10T14:09:00;30.40;61.10
11965;DHT22;6042;41.326;19.826;2022-07-10T14:11:30;30.30;61.60
11965;DHT22;6042;41.326;19.826;2022-07-10T14:13:58;30.60;60.70
11965;DHT22;6042;41.326;19.826;2022-07-10T14:16:27;30.50;60.80
11965;DHT22;6042;41.326;19.826;2022-07-10T14:18:55;30.30;60.80
11965;DHT22;6042;41.326;19.826;2022-07-10T14:21:24;29.80;61.40
11965;DHT22;6042;41.326;19.826;2022-07-10T14:23:56;29.50;62.60
11965;DHT22;6042;41.326;19.826;2022-07-10T14:26:24;29.70;62.50
11965;DHT22;6042;41.326;19.826;2022-07-10T14:28:53;30.30;62.10
11965;DHT22;6042;41.326;19.826;2022-07-10T14:31:22;30.00;62.60
11965;DHT22;6042;41.326;19.826;2022-07-10T14:33:50;29.80;63.20
11965;DHT22;6042;41.326;19.826;2022-07-10T14:36:19;29.70;63.50
11965;DHT22;6042;41.326;19.826;2022-07-10T14:38:49;29.80;63.30
11965;DHT22;6042;41.326;19.826;2022-07-10T14:41:19;29.60;63.80
11965;DHT22;6042;41.326;19.826;2022-07-10T14:43:48;29.60;64.30
11965;DHT22;6042;41.326;19.826;2022-07-10T14:46:16;29.70;64.80
11965;DHT22;6042;41.326;19.826;2022-07-10T14:48:45;29.60;65.00
11965;DHT22;6042;41.326;19.826;2022-07-10T14:51:14;29.30;65.60
11965;DHT22;6042;41.326;19.826;2022-07-10T14:53:42;29.40;65.30
11965;DHT22;6042;41.326;19.826;2022-07-10T14:56:12;29.40;65.20
11965;DHT22;6042;41.326;19.826;2022-07-10T14:58:44;29.60;64.70
11965;DHT22;6042;41.326;19.826;2022-07-10T15:01:34;30.00;64.00
11965;DHT22;6042;41.326;19.826;2022-07-10T15:04:02;30.40;63.60
11965;DHT22;6042;41.326;19.826;2022-07-10T15:06:31;30.40;63.40
11965;DHT22;6042;41.326;19.826;2022-07-10T15:08:59;30.50;63.80
11965;DHT22;6042;41.326;19.826;2022-07-10T15:11:28;31.20;62.70
11965;DHT22;6042;41.326;19.826;2022-07-10T15:13:58;31.60;62.10
11965;DHT22;6042;41.326;19.826;2022-07-10T15:16:28;31.80;62.10
11965;DHT22;6042;41.326;19.826;2022-07-10T15:18:57;32.00;61.20
11965;DHT22;6042;41.326;19.826;2022-07-10T15:21:26;31.80;62.10
11965;DHT22;6042;41.326;19.826;2022-07-10T15:23:55;31.90;62.20
11965;DHT22;6042;41.326;19.826;2022-07-10T15:26:24;32.30;61.50
11965;DHT22;6042;41.326;19.826;2022-07-10T15:28:52;32.30;61.50
11965;DHT22;6042;41.326;19.826;2022-07-10T15:31:23;32.50;61.70
11965;DHT22;6042;41.326;19.826;2022-07-10T15:33:52;32.90;61.00
11965;DHT22;6042;41.326;19.826;2022-07-10T15:36:20;32.90;60.70
11965;DHT22;6042;41.326;19.826;2022-07-10T15:38:49;32.70;60.70
11965;DHT22;6042;41.326;19.826;2022-07-10T15:41:17;32.50;60.90
11965;DHT22;6042;41.326;19.826;2022-07-10T15:43:46;32.20;61.40
11965;DHT22;6042;41.326;19.826;2022-07-10T15:46:14;32.20;61.60
11965;DHT22;6042;41.326;19.826;2022-07-10T15:48:44;32.20;61.60
11965;DHT22;6042;41.326;19.826;2022-07-10T15:51:13;32.20;61.30
11965;DHT22;6042;41.326;19.826;2022-07-10T15:53:42;32.50;60.70